Portada
METAR-TAF:

METAR-TAF

Aeropuertos :

Tri-County Regional Airport

Lone Rock, Wisconsin, Estados Unidos

latitud: 43-12-43N, longitud: 090-10-53W, altitud: 219 m

Observación

El informe se hizo hace 55 minutos, a las 05:56 UTC
Viento calma
Temperatura 9°C
Humedad 87%
Presión 1025 hPa
Visibilidad: 16.1 km
Cielo despejado

METAR: KLNR 310556Z AUTO 00000KT 10SM CLR 09/07 A3027 RMK AO2 SLP245 T00940067 10200 20094 402110083 51009

Hora: 01:51 (06:51 UTC)


TAF: falta

Observaciones y pronósticos meteorológicos de más de 4000 aeropuertos (mensajes METAR y TAF).

Los puntos amarillos y rojos representan las estaciones disponibles.

Ponga el ratón en el punto deseado para ver el nombre de la estación.

Haga clic para ver las observaciones y los pronósticos meteorológicos.

Para cambiar el mapa : haga clic en los botones verdes con una cruz de color negro para hacer un zoom, en el botón verde con un guión para alejar o en las flechas verdes para mapas adyacentes.


METAR-TAF: